sensor_id;sensor_type;location;lat;lon;timestamp;temperature;humidity
32293;DHT22;43233;48.608;8.838;2023-04-24T00:02:23;10.40;74.40
32293;DHT22;43233;48.608;8.838;2023-04-24T00:04:49;10.40;74.80
32293;DHT22;43233;48.608;8.838;2023-04-24T00:07:15;10.40;75.10
32293;DHT22;43233;48.608;8.838;2023-04-24T00:09:45;10.50;75.10
32293;DHT22;43233;48.608;8.838;2023-04-24T00:12:11;10.50;75.20
32293;DHT22;43233;48.608;8.838;2023-04-24T00:14:36;10.50;75.40
32293;DHT22;43233;48.608;8.838;2023-04-24T00:17:02;10.50;75.30
32293;DHT22;43233;48.608;8.838;2023-04-24T00:19:28;10.60;75.40
32293;DHT22;43233;48.608;8.838;2023-04-24T00:21:54;10.50;75.70
32293;DHT22;43233;48.608;8.838;2023-04-24T00:24:21;10.60;76.40
32293;DHT22;43233;48.608;8.838;2023-04-24T00:26:46;10.60;76.70
32293;DHT22;43233;48.608;8.838;2023-04-24T00:29:12;10.60;76.90
32293;DHT22;43233;48.608;8.838;2023-04-24T00:31:38;10.60;77.20
32293;DHT22;43233;48.608;8.838;2023-04-24T00:34:05;10.60;77.50
32293;DHT22;43233;48.608;8.838;2023-04-24T00:36:31;10.50;78.00
32293;DHT22;43233;48.608;8.838;2023-04-24T00:38:57;10.50;78.30
32293;DHT22;43233;48.608;8.838;2023-04-24T00:41:24;10.50;78.20
32293;DHT22;43233;48.608;8.838;2023-04-24T00:43:51;10.40;78.00
32293;DHT22;43233;48.608;8.838;2023-04-24T00:46:17;10.40;78.20
32293;DHT22;43233;48.608;8.838;2023-04-24T00:48:43;10.40;78.00
32293;DHT22;43233;48.608;8.838;2023-04-24T00:51:09;10.40;77.70
32293;DHT22;43233;48.608;8.838;2023-04-24T00:53:35;10.50;77.60
32293;DHT22;43233;48.608;8.838;2023-04-24T00:56:01;10.50;77.50
32293;DHT22;43233;48.608;8.838;2023-04-24T00:58:27;10.60;77.20
32293;DHT22;43233;48.608;8.838;2023-04-24T01:00:54;10.60;77.10
32293;DHT22;43233;48.608;8.838;2023-04-24T01:03:22;10.50;77.60
32293;DHT22;43233;48.608;8.838;2023-04-24T01:05:49;10.40;78.20
32293;DHT22;43233;48.608;8.838;2023-04-24T01:08:16;10.40;78.30
32293;DHT22;43233;48.608;8.838;2023-04-24T01:10:42;10.50;78.50
32293;DHT22;43233;48.608;8.838;2023-04-24T01:13:08;10.50;78.40
32293;DHT22;43233;48.608;8.838;2023-04-24T01:15:35;10.50;78.20
32293;DHT22;43233;48.608;8.838;2023-04-24T01:18:00;10.40;78.30
32293;DHT22;43233;48.608;8.838;2023-04-24T01:20:26;10.50;78.70
32293;DHT22;43233;48.608;8.838;2023-04-24T01:22:54;10.50;78.40
32293;DHT22;43233;48.608;8.838;2023-04-24T01:25:20;10.50;78.20
32293;DHT22;43233;48.608;8.838;2023-04-24T01:27:46;10.50;78.20
32293;DHT22;43233;48.608;8.838;2023-04-24T01:30:12;10.40;78.50
32293;DHT22;43233;48.608;8.838;2023-04-24T01:32:39;10.50;78.10
32293;DHT22;43233;48.608;8.838;2023-04-24T01:35:05;10.40;78.80
32293;DHT22;43233;48.608;8.838;2023-04-24T01:37:31;10.40;79.30
32293;DHT22;43233;48.608;8.838;2023-04-24T01:39:58;10.40;80.40
32293;DHT22;43233;48.608;8.838;2023-04-24T01:42:24;10.40;80.50
32293;DHT22;43233;48.608;8.838;2023-04-24T01:44:50;10.50;80.00
32293;DHT22;43233;48.608;8.838;2023-04-24T01:47:16;10.40;80.60
32293;DHT22;43233;48.608;8.838;2023-04-24T01:49:42;10.30;81.70
32293;DHT22;43233;48.608;8.838;2023-04-24T01:52:08;10.30;82.70
32293;DHT22;43233;48.608;8.838;2023-04-24T01:54:34;10.30;82.60
32293;DHT22;43233;48.608;8.838;2023-04-24T01:57:00;10.30;82.50
32293;DHT22;43233;48.608;8.838;2023-04-24T01:59:28;10.20;82.60
32293;DHT22;43233;48.608;8.838;2023-04-24T02:01:54;10.20;82.50
32293;DHT22;43233;48.608;8.838;2023-04-24T02:04:19;10.20;82.30
32293;DHT22;43233;48.608;8.838;2023-04-24T02:06:45;10.20;82.60
32293;DHT22;43233;48.608;8.838;2023-04-24T02:09:11;10.10;83.20
32293;DHT22;43233;48.608;8.838;2023-04-24T02:11:36;10.10;83.40
32293;DHT22;43233;48.608;8.838;2023-04-24T02:14:02;10.10;83.10
32293;DHT22;43233;48.608;8.838;2023-04-24T02:16:28;10.10;83.00
32293;DHT22;43233;48.608;8.838;2023-04-24T02:18:57;10.10;83.10
32293;DHT22;43233;48.608;8.838;2023-04-24T02:21:23;10.10;83.40
32293;DHT22;43233;48.608;8.838;2023-04-24T02:23:48;10.20;83.40
32293;DHT22;43233;48.608;8.838;2023-04-24T02:26:14;10.20;82.90
32293;DHT22;43233;48.608;8.838;2023-04-24T02:28:40;10.20;83.10
32293;DHT22;43233;48.608;8.838;2023-04-24T02:31:06;10.20;82.90
32293;DHT22;43233;48.608;8.838;2023-04-24T02:33:31;10.30;82.70
32293;DHT22;43233;48.608;8.838;2023-04-24T02:35:57;10.30;82.50
32293;DHT22;43233;48.608;8.838;2023-04-24T02:38:23;10.30;82.80
32293;DHT22;43233;48.608;8.838;2023-04-24T02:40:48;10.20;83.50
32293;DHT22;43233;48.608;8.838;2023-04-24T02:43:14;10.20;84.00
32293;DHT22;43233;48.608;8.838;2023-04-24T02:45:40;10.10;85.10
32293;DHT22;43233;48.608;8.838;2023-04-24T02:48:05;10.20;85.00
32293;DHT22;43233;48.608;8.838;2023-04-24T02:50:31;10.10;85.00
32293;DHT22;43233;48.608;8.838;2023-04-24T02:52:57;10.10;85.00
32293;DHT22;43233;48.608;8.838;2023-04-24T02:55:22;10.10;85.40
32293;DHT22;43233;48.608;8.838;2023-04-24T02:57:48;10.10;85.70
32293;DHT22;43233;48.608;8.838;2023-04-24T03:00:14;10.10;85.40
32293;DHT22;43233;48.608;8.838;2023-04-24T03:02:39;10.10;85.40
32293;DHT22;43233;48.608;8.838;2023-04-24T03:05:05;10.10;86.00
32293;DHT22;43233;48.608;8.838;2023-04-24T03:07:31;10.00;85.90
32293;DHT22;43233;48.608;8.838;2023-04-24T03:09:57;10.10;86.30
32293;DHT22;43233;48.608;8.838;2023-04-24T03:12:23;10.20;85.40
32293;DHT22;43233;48.608;8.838;2023-04-24T03:14:49;10.20;85.30
32293;DHT22;43233;48.608;8.838;2023-04-24T03:17:15;10.10;85.70
32293;DHT22;43233;48.608;8.838;2023-04-24T03:19:40;10.00;86.40
32293;DHT22;43233;48.608;8.838;2023-04-24T03:22:06;10.00;86.40
32293;DHT22;43233;48.608;8.838;2023-04-24T03:24:32;9.90;87.20
32293;DHT22;43233;48.608;8.838;2023-04-24T03:26:57;9.90;86.60
32293;DHT22;43233;48.608;8.838;2023-04-24T03:29:23;9.90;86.50
32293;DHT22;43233;48.608;8.838;2023-04-24T03:31:49;9.90;86.10
32293;DHT22;43233;48.608;8.838;2023-04-24T03:34:14;9.90;85.80
32293;DHT22;43233;48.608;8.838;2023-04-24T03:36:40;9.80;85.80
32293;DHT22;43233;48.608;8.838;2023-04-24T03:39:05;9.80;85.40
32293;DHT22;43233;48.608;8.838;2023-04-24T03:41:31;9.80;85.40
32293;DHT22;43233;48.608;8.838;2023-04-24T03:43:57;9.70;85.30
32293;DHT22;43233;48.608;8.838;2023-04-24T03:46:22;9.70;84.80
32293;DHT22;43233;48.608;8.838;2023-04-24T03:48:48;9.60;84.20
32293;DHT22;43233;48.608;8.838;2023-04-24T03:51:13;9.60;84.10
32293;DHT22;43233;48.608;8.838;2023-04-24T03:53:39;9.60;83.90
32293;DHT22;43233;48.608;8.838;2023-04-24T03:56:05;9.50;83.80
32293;DHT22;43233;48.608;8.838;2023-04-24T03:58:30;9.50;84.00
32293;DHT22;43233;48.608;8.838;2023-04-24T04:00:56;9.50;84.10
32293;DHT22;43233;48.608;8.838;2023-04-24T04:03:23;9.50;84.50
32293;DHT22;43233;48.608;8.838;2023-04-24T04:05:50;9.50;84.80
32293;DHT22;43233;48.608;8.838;2023-04-24T04:08:16;9.50;84.80
32293;DHT22;43233;48.608;8.838;2023-04-24T04:10:42;9.50;85.00
32293;DHT22;43233;48.608;8.838;2023-04-24T04:13:07;9.40;85.70
32293;DHT22;43233;48.608;8.838;2023-04-24T04:15:33;9.40;86.10
32293;DHT22;43233;48.608;8.838;2023-04-24T04:17:59;9.30;86.70
32293;DHT22;43233;48.608;8.838;2023-04-24T04:20:25;9.40;87.90
32293;DHT22;43233;48.608;8.838;2023-04-24T04:22:50;9.40;87.50
32293;DHT22;43233;48.608;8.838;2023-04-24T04:25:16;9.30;88.00
32293;DHT22;43233;48.608;8.838;2023-04-24T04:27:45;9.20;89.10
32293;DHT22;43233;48.608;8.838;2023-04-24T04:30:11;9.20;89.80
32293;DHT22;43233;48.608;8.838;2023-04-24T04:32:37;9.20;90.70
32293;DHT22;43233;48.608;8.838;2023-04-24T04:35:04;9.10;91.60
32293;DHT22;43233;48.608;8.838;2023-04-24T04:37:30;9.10;92.70
32293;DHT22;43233;48.608;8.838;2023-04-24T04:39:57;9.00;90.80
32293;DHT22;43233;48.608;8.838;2023-04-24T04:42:26;8.80;86.90
32293;DHT22;43233;48.608;8.838;2023-04-24T04:44:53;8.70;84.50
32293;DHT22;43233;48.608;8.838;2023-04-24T04:47:21;8.50;88.50
32293;DHT22;43233;48.608;8.838;2023-04-24T04:49:50;8.40;90.60
32293;DHT22;43233;48.608;8.838;2023-04-24T04:52:19;8.30;90.20
32293;DHT22;43233;48.608;8.838;2023-04-24T04:54:45;8.30;89.40
32293;DHT22;43233;48.608;8.838;2023-04-24T04:57:11;8.30;89.00
32293;DHT22;43233;48.608;8.838;2023-04-24T04:59:37;8.30;88.60
32293;DHT22;43233;48.608;8.838;2023-04-24T05:02:03;8.30;88.20
32293;DHT22;43233;48.608;8.838;2023-04-24T05:04:29;8.30;88.60
32293;DHT22;43233;48.608;8.838;2023-04-24T05:06:55;8.30;87.50
32293;DHT22;43233;48.608;8.838;2023-04-24T05:09:21;8.30;86.40
32293;DHT22;43233;48.608;8.838;2023-04-24T05:11:47;8.30;87.80
32293;DHT22;43233;48.608;8.838;2023-04-24T05:14:13;8.30;87.10
32293;DHT22;43233;48.608;8.838;2023-04-24T05:16:39;8.30;87.00
32293;DHT22;43233;48.608;8.838;2023-04-24T05:19:05;8.30;85.80
32293;DHT22;43233;48.608;8.838;2023-04-24T05:21:31;8.30;85.30
32293;DHT22;43233;48.608;8.838;2023-04-24T05:23:57;8.30;84.60
32293;DHT22;43233;48.608;8.838;2023-04-24T05:26:22;8.40;84.70
32293;DHT22;43233;48.608;8.838;2023-04-24T05:28:49;8.40;85.10
32293;DHT22;43233;48.608;8.838;2023-04-24T05:31:15;8.40;85.60
32293;DHT22;43233;48.608;8.838;2023-04-24T05:33:41;8.50;85.50
32293;DHT22;43233;48.608;8.838;2023-04-24T05:36:07;8.60;85.40
32293;DHT22;43233;48.608;8.838;2023-04-24T05:38:32;8.60;85.30
32293;DHT22;43233;48.608;8.838;2023-04-24T05:40:58;8.70;83.80
32293;DHT22;43233;48.608;8.838;2023-04-24T05:43:24;8.60;83.40
32293;DHT22;43233;48.608;8.838;2023-04-24T05:45:50;8.60;81.50
32293;DHT22;43233;48.608;8.838;2023-04-24T05:48:16;8.60;81.80
32293;DHT22;43233;48.608;8.838;2023-04-24T05:50:41;8.60;82.00
32293;DHT22;43233;48.608;8.838;2023-04-24T05:53:07;8.60;81.50
32293;DHT22;43233;48.608;8.838;2023-04-24T05:55:33;8.60;79.80
32293;DHT22;43233;48.608;8.838;2023-04-24T05:57:59;8.60;79.60
32293;DHT22;43233;48.608;8.838;2023-04-24T06:00:25;8.70;80.30
32293;DHT22;43233;48.608;8.838;2023-04-24T06:02:51;8.80;81.60
32293;DHT22;43233;48.608;8.838;2023-04-24T06:05:18;8.90;81.10
32293;DHT22;43233;48.608;8.838;2023-04-24T06:07:43;8.90;80.40
32293;DHT22;43233;48.608;8.838;2023-04-24T06:10:10;9.00;79.70
32293;DHT22;43233;48.608;8.838;2023-04-24T06:12:36;9.00;78.80
32293;DHT22;43233;48.608;8.838;2023-04-24T06:15:03;9.10;78.40
32293;DHT22;43233;48.608;8.838;2023-04-24T06:17:29;9.20;77.70
32293;DHT22;43233;48.608;8.838;2023-04-24T06:19:54;9.30;76.70
32293;DHT22;43233;48.608;8.838;2023-04-24T06:22:20;9.30;77.60
32293;DHT22;43233;48.608;8.838;2023-04-24T06:24:46;9.30;76.70
32293;DHT22;43233;48.608;8.838;2023-04-24T06:27:13;9.20;78.90
32293;DHT22;43233;48.608;8.838;2023-04-24T06:29:39;9.20;77.20
32293;DHT22;43233;48.608;8.838;2023-04-24T06:32:05;9.30;76.20
32293;DHT22;43233;48.608;8.838;2023-04-24T06:34:31;9.30;76.70
32293;DHT22;43233;48.608;8.838;2023-04-24T06:36:58;9.30;78.00
32293;DHT22;43233;48.608;8.838;2023-04-24T06:39:23;9.40;78.20
32293;DHT22;43233;48.608;8.838;2023-04-24T06:41:49;9.40;76.80
32293;DHT22;43233;48.608;8.838;2023-04-24T06:44:15;9.40;77.10
32293;DHT22;43233;48.608;8.838;2023-04-24T06:46:41;9.40;77.90
32293;DHT22;43233;48.608;8.838;2023-04-24T06:49:06;9.30;76.00
32293;DHT22;43233;48.608;8.838;2023-04-24T06:51:32;9.20;78.00
32293;DHT22;43233;48.608;8.838;2023-04-24T06:53:58;9.10;75.80
32293;DHT22;43233;48.608;8.838;2023-04-24T06:56:25;9.00;79.20
32293;DHT22;43233;48.608;8.838;2023-04-24T06:58:51;8.90;80.50
32293;DHT22;43233;48.608;8.838;2023-04-24T07:01:17;8.80;81.70
32293;DHT22;43233;48.608;8.838;2023-04-24T07:03:42;8.50;85.00
32293;DHT22;43233;48.608;8.838;2023-04-24T07:06:09;8.50;85.30
32293;DHT22;43233;48.608;8.838;2023-04-24T07:08:36;8.40;86.40
32293;DHT22;43233;48.608;8.838;2023-04-24T07:11:02;8.40;86.20
32293;DHT22;43233;48.608;8.838;2023-04-24T07:13:28;8.60;86.70
32293;DHT22;43233;48.608;8.838;2023-04-24T07:15:54;8.70;87.70
32293;DHT22;43233;48.608;8.838;2023-04-24T07:18:21;8.90;87.10
32293;DHT22;43233;48.608;8.838;2023-04-24T07:20:47;8.90;76.70
32293;DHT22;43233;48.608;8.838;2023-04-24T07:23:15;8.90;80.40
32293;DHT22;43233;48.608;8.838;2023-04-24T07:25:41;9.00;80.10
32293;DHT22;43233;48.608;8.838;2023-04-24T07:28:06;9.00;78.90
32293;DHT22;43233;48.608;8.838;2023-04-24T07:30:32;9.00;76.10
32293;DHT22;43233;48.608;8.838;2023-04-24T07:32:58;9.00;77.40
32293;DHT22;43233;48.608;8.838;2023-04-24T07:35:25;9.10;75.70
32293;DHT22;43233;48.608;8.838;2023-04-24T07:37:54;9.10;77.30
32293;DHT22;43233;48.608;8.838;2023-04-24T07:40:20;9.10;75.20
32293;DHT22;43233;48.608;8.838;2023-04-24T07:42:46;9.10;76.10
32293;DHT22;43233;48.608;8.838;2023-04-24T07:45:14;9.20;72.70
32293;DHT22;43233;48.608;8.838;2023-04-24T07:47:42;9.20;75.10
32293;DHT22;43233;48.608;8.838;2023-04-24T07:50:09;9.20;73.50
32293;DHT22;43233;48.608;8.838;2023-04-24T07:52:35;9.20;72.70
32293;DHT22;43233;48.608;8.838;2023-04-24T07:55:01;9.30;75.80
32293;DHT22;43233;48.608;8.838;2023-04-24T07:57:27;9.30;74.80
32293;DHT22;43233;48.608;8.838;2023-04-24T07:59:53;9.30;73.40
32293;DHT22;43233;48.608;8.838;2023-04-24T08:02:19;9.20;71.20
32293;DHT22;43233;48.608;8.838;2023-04-24T08:04:45;9.00;68.20
32293;DHT22;43233;48.608;8.838;2023-04-24T08:07:11;9.00;72.00
32293;DHT22;43233;48.608;8.838;2023-04-24T08:09:38;9.10;70.70
32293;DHT22;43233;48.608;8.838;2023-04-24T08:12:03;9.20;68.30
32293;DHT22;43233;48.608;8.838;2023-04-24T08:14:29;9.30;71.00
32293;DHT22;43233;48.608;8.838;2023-04-24T08:16:57;9.40;71.10
32293;DHT22;43233;48.608;8.838;2023-04-24T08:19:25;9.50;65.60
32293;DHT22;43233;48.608;8.838;2023-04-24T08:21:51;9.40;68.60
32293;DHT22;43233;48.608;8.838;2023-04-24T08:24:16;9.60;67.20
32293;DHT22;43233;48.608;8.838;2023-04-24T08:26:42;9.70;60.30
32293;DHT22;43233;48.608;8.838;2023-04-24T08:29:08;9.70;60.30
32293;DHT22;43233;48.608;8.838;2023-04-24T08:31:34;9.70;61.00
32293;DHT22;43233;48.608;8.838;2023-04-24T08:34:00;9.50;59.50
32293;DHT22;43233;48.608;8.838;2023-04-24T08:36:26;9.30;60.20
32293;DHT22;43233;48.608;8.838;2023-04-24T08:38:52;9.20;61.40
32293;DHT22;43233;48.608;8.838;2023-04-24T08:41:19;9.00;61.50
32293;DHT22;43233;48.608;8.838;2023-04-24T08:43:48;9.00;62.40
32293;DHT22;43233;48.608;8.838;2023-04-24T08:46:15;9.10;64.90
32293;DHT22;43233;48.608;8.838;2023-04-24T08:48:42;9.40;64.90
32293;DHT22;43233;48.608;8.838;2023-04-24T08:51:08;9.50;61.70
32293;DHT22;43233;48.608;8.838;2023-04-24T08:53:35;9.60;61.70
32293;DHT22;43233;48.608;8.838;2023-04-24T08:56:01;9.90;60.80
32293;DHT22;43233;48.608;8.838;2023-04-24T08:58:28;10.00;58.50
32293;DHT22;43233;48.608;8.838;2023-04-24T09:00:55;10.10;60.80
32293;DHT22;43233;48.608;8.838;2023-04-24T09:03:21;10.00;59.40
32293;DHT22;43233;48.608;8.838;2023-04-24T09:05:47;10.00;59.10
32293;DHT22;43233;48.608;8.838;2023-04-24T09:08:19;10.10;59.30
32293;DHT22;43233;48.608;8.838;2023-04-24T09:10:45;10.30;55.00
32293;DHT22;43233;48.608;8.838;2023-04-24T09:13:11;10.30;56.00
32293;DHT22;43233;48.608;8.838;2023-04-24T09:15:40;10.50;53.20
32293;DHT22;43233;48.608;8.838;2023-04-24T09:18:06;10.50;53.00
32293;DHT22;43233;48.608;8.838;2023-04-24T09:20:32;10.60;50.50
32293;DHT22;43233;48.608;8.838;2023-04-24T09:22:58;10.50;49.40
32293;DHT22;43233;48.608;8.838;2023-04-24T09:25:34;10.50;51.00
32293;DHT22;43233;48.608;8.838;2023-04-24T09:28:02;10.50;49.60
32293;DHT22;43233;48.608;8.838;2023-04-24T09:30:29;10.60;50.00
32293;DHT22;43233;48.608;8.838;2023-04-24T09:33:14;10.70;49.60
32293;DHT22;43233;48.608;8.838;2023-04-24T09:36:01;11.00;48.90
32293;DHT22;43233;48.608;8.838;2023-04-24T09:38:35;10.80;46.80
32293;DHT22;43233;48.608;8.838;2023-04-24T09:41:06;10.70;47.60
32293;DHT22;43233;48.608;8.838;2023-04-24T09:43:32;10.60;48.80
32293;DHT22;43233;48.608;8.838;2023-04-24T09:45:59;10.70;47.90
32293;DHT22;43233;48.608;8.838;2023-04-24T09:48:34;11.10;47.90
32293;DHT22;43233;48.608;8.838;2023-04-24T09:51:01;11.00;43.40
32293;DHT22;43233;48.608;8.838;2023-04-24T09:53:29;10.90;45.70
32293;DHT22;43233;48.608;8.838;2023-04-24T09:55:55;10.70;45.00
32293;DHT22;43233;48.608;8.838;2023-04-24T09:58:29;10.70;46.80
32293;DHT22;43233;48.608;8.838;2023-04-24T10:00:56;10.50;47.90
32293;DHT22;43233;48.608;8.838;2023-04-24T10:03:30;10.30;47.30
32293;DHT22;43233;48.608;8.838;2023-04-24T10:05:59;10.20;50.20
32293;DHT22;43233;48.608;8.838;2023-04-24T10:08:25;10.20;48.20
32293;DHT22;43233;48.608;8.838;2023-04-24T10:10:52;10.30;52.40
32293;DHT22;43233;48.608;8.838;2023-04-24T10:13:18;10.40;52.20
32293;DHT22;43233;48.608;8.838;2023-04-24T10:15:44;10.30;50.10
32293;DHT22;43233;48.608;8.838;2023-04-24T10:18:11;10.40;50.40
32293;DHT22;43233;48.608;8.838;2023-04-24T10:20:38;10.60;54.60
32293;DHT22;43233;48.608;8.838;2023-04-24T10:23:05;10.40;50.40
32293;DHT22;43233;48.608;8.838;2023-04-24T10:25:35;10.20;51.70
32293;DHT22;43233;48.608;8.838;2023-04-24T10:28:02;10.00;52.90
32293;DHT22;43233;48.608;8.838;2023-04-24T10:30:30;10.10;54.20
32293;DHT22;43233;48.608;8.838;2023-04-24T10:32:59;10.30;54.60
32293;DHT22;43233;48.608;8.838;2023-04-24T10:35:25;10.60;55.80
32293;DHT22;43233;48.608;8.838;2023-04-24T10:40:19;10.30;53.00
32293;DHT22;43233;48.608;8.838;2023-04-24T10:42:51;10.30;56.00
32293;DHT22;43233;48.608;8.838;2023-04-24T10:45:21;10.40;52.70
32293;DHT22;43233;48.608;8.838;2023-04-24T10:47:57;10.60;54.40
32293;DHT22;43233;48.608;8.838;2023-04-24T10:50:25;10.80;52.20
32293;DHT22;43233;48.608;8.838;2023-04-24T10:52:53;11.00;53.50
32293;DHT22;43233;48.608;8.838;2023-04-24T10:55:40;11.20;55.00
32293;DHT22;43233;48.608;8.838;2023-04-24T10:58:06;11.30;51.10
32293;DHT22;43233;48.608;8.838;2023-04-24T11:00:32;11.00;50.90
32293;DHT22;43233;48.608;8.838;2023-04-24T11:02:58;10.70;50.40
32293;DHT22;43233;48.608;8.838;2023-04-24T11:08:25;10.40;50.80
32293;DHT22;43233;48.608;8.838;2023-04-24T11:13:24;10.20;50.80
32293;DHT22;43233;48.608;8.838;2023-04-24T11:16:13;10.10;52.00
32293;DHT22;43233;48.608;8.838;2023-04-24T11:18:42;9.60;56.90
32293;DHT22;43233;48.608;8.838;2023-04-24T11:21:17;9.30;58.00
32293;DHT22;43233;48.608;8.838;2023-04-24T11:23:43;9.30;59.00
32293;DHT22;43233;48.608;8.838;2023-04-24T11:26:11;9.50;60.00
32293;DHT22;43233;48.608;8.838;2023-04-24T11:28:37;9.80;55.50
32293;DHT22;43233;48.608;8.838;2023-04-24T11:31:34;9.90;55.90
32293;DHT22;43233;48.608;8.838;2023-04-24T11:34:11;10.20;54.90
32293;DHT22;43233;48.608;8.838;2023-04-24T11:36:39;10.40;55.20
32293;DHT22;43233;48.608;8.838;2023-04-24T11:39:05;10.30;54.20
32293;DHT22;43233;48.608;8.838;2023-04-24T11:41:32;10.20;53.90
32293;DHT22;43233;48.608;8.838;2023-04-24T11:43:58;10.20;54.30
32293;DHT22;43233;48.608;8.838;2023-04-24T11:46:28;10.30;53.90
32293;DHT22;43233;48.608;8.838;2023-04-24T11:48:54;10.20;53.90
32293;DHT22;43233;48.608;8.838;2023-04-24T11:51:20;10.10;54.50
32293;DHT22;43233;48.608;8.838;2023-04-24T11:53:45;10.10;53.40
32293;DHT22;43233;48.608;8.838;2023-04-24T11:56:11;10.20;52.30
32293;DHT22;43233;48.608;8.838;2023-04-24T11:58:40;10.00;53.20
32293;DHT22;43233;48.608;8.838;2023-04-24T12:01:05;9.80;53.30
32293;DHT22;43233;48.608;8.838;2023-04-24T12:03:31;9.70;54.60
32293;DHT22;43233;48.608;8.838;2023-04-24T12:08:33;9.70;55.30
32293;DHT22;43233;48.608;8.838;2023-04-24T12:11:03;9.70;55.90
32293;DHT22;43233;48.608;8.838;2023-04-24T12:13:30;9.40;59.60
32293;DHT22;43233;48.608;8.838;2023-04-24T12:15:57;9.20;61.60
32293;DHT22;43233;48.608;8.838;2023-04-24T12:18:23;9.20;61.70
32293;DHT22;43233;48.608;8.838;2023-04-24T12:20:49;9.10;63.10
32293;DHT22;43233;48.608;8.838;2023-04-24T12:23:15;9.20;66.70
32293;DHT22;43233;48.608;8.838;2023-04-24T12:25:41;9.00;65.20
32293;DHT22;43233;48.608;8.838;2023-04-24T12:30:48;8.90;68.50
32293;DHT22;43233;48.608;8.838;2023-04-24T12:33:21;9.00;71.40
32293;DHT22;43233;48.608;8.838;2023-04-24T12:35:48;9.30;68.40
32293;DHT22;43233;48.608;8.838;2023-04-24T12:38:21;9.60;70.30
32293;DHT22;43233;48.608;8.838;2023-04-24T12:40:48;9.60;64.00
32293;DHT22;43233;48.608;8.838;2023-04-24T12:43:18;9.70;64.60
32293;DHT22;43233;48.608;8.838;2023-04-24T12:45:44;9.80;61.10
32293;DHT22;43233;48.608;8.838;2023-04-24T12:48:13;9.70;58.80
32293;DHT22;43233;48.608;8.838;2023-04-24T12:50:42;9.70;58.00
32293;DHT22;43233;48.608;8.838;2023-04-24T12:53:08;9.50;57.00
32293;DHT22;43233;48.608;8.838;2023-04-24T12:55:34;9.50;59.70
32293;DHT22;43233;48.608;8.838;2023-04-24T12:58:00;9.50;59.30
32293;DHT22;43233;48.608;8.838;2023-04-24T13:00:27;9.60;57.80
32293;DHT22;43233;48.608;8.838;2023-04-24T13:02:53;9.60;58.20
32293;DHT22;43233;48.608;8.838;2023-04-24T13:05:18;9.60;56.10
32293;DHT22;43233;48.608;8.838;2023-04-24T13:07:44;9.60;55.30
32293;DHT22;43233;48.608;8.838;2023-04-24T13:10:10;9.50;55.20
32293;DHT22;43233;48.608;8.838;2023-04-24T13:12:36;9.40;55.80
32293;DHT22;43233;48.608;8.838;2023-04-24T13:15:02;9.50;56.10
32293;DHT22;43233;48.608;8.838;2023-04-24T13:17:28;9.60;55.00
32293;DHT22;43233;48.608;8.838;2023-04-24T13:19:54;9.60;54.80
32293;DHT22;43233;48.608;8.838;2023-04-24T13:22:20;9.70;55.60
32293;DHT22;43233;48.608;8.838;2023-04-24T13:24:46;9.90;54.30
32293;DHT22;43233;48.608;8.838;2023-04-24T13:27:14;10.20;55.10
32293;DHT22;43233;48.608;8.838;2023-04-24T13:29:40;10.30;52.20
32293;DHT22;43233;48.608;8.838;2023-04-24T13:32:07;10.30;53.30
32293;DHT22;43233;48.608;8.838;2023-04-24T13:34:33;10.40;53.00
32293;DHT22;43233;48.608;8.838;2023-04-24T13:37:00;10.40;51.80
32293;DHT22;43233;48.608;8.838;2023-04-24T13:39:26;10.40;53.20
32293;DHT22;43233;48.608;8.838;2023-04-24T13:41:52;10.20;49.90
32293;DHT22;43233;48.608;8.838;2023-04-24T13:44:19;10.20;53.10
32293;DHT22;43233;48.608;8.838;2023-04-24T13:46:47;10.10;52.40
32293;DHT22;43233;48.608;8.838;2023-04-24T13:49:14;10.00;53.50
32293;DHT22;43233;48.608;8.838;2023-04-24T13:51:41;9.90;52.40
32293;DHT22;43233;48.608;8.838;2023-04-24T13:54:06;9.80;52.00
32293;DHT22;43233;48.608;8.838;2023-04-24T13:56:32;9.60;51.80
32293;DHT22;43233;48.608;8.838;2023-04-24T13:58:58;9.70;53.60
32293;DHT22;43233;48.608;8.838;2023-04-24T14:01:24;9.70;53.50
32293;DHT22;43233;48.608;8.838;2023-04-24T14:03:51;9.80;52.90
32293;DHT22;43233;48.608;8.838;2023-04-24T14:06:18;9.80;54.00
32293;DHT22;43233;48.608;8.838;2023-04-24T14:08:43;9.70;52.50
32293;DHT22;43233;48.608;8.838;2023-04-24T14:11:09;9.70;54.00
32293;DHT22;43233;48.608;8.838;2023-04-24T14:13:36;9.70;53.50
32293;DHT22;43233;48.608;8.838;2023-04-24T14:16:03;9.80;52.80
32293;DHT22;43233;48.608;8.838;2023-04-24T14:18:29;9.80;52.90
32293;DHT22;43233;48.608;8.838;2023-04-24T14:20:54;9.90;53.30
32293;DHT22;43233;48.608;8.838;2023-04-24T14:23:20;9.90;52.40
32293;DHT22;43233;48.608;8.838;2023-04-24T14:25:46;9.80;53.10
32293;DHT22;43233;48.608;8.838;2023-04-24T14:28:16;9.70;53.60
32293;DHT22;43233;48.608;8.838;2023-04-24T14:30:42;9.80;55.00
32293;DHT22;43233;48.608;8.838;2023-04-24T14:33:08;9.90;54.90
32293;DHT22;43233;48.608;8.838;2023-04-24T14:35:33;9.90;53.30
32293;DHT22;43233;48.608;8.838;2023-04-24T14:38:00;9.80;52.10
32293;DHT22;43233;48.608;8.838;2023-04-24T14:40:26;9.70;54.00
32293;DHT22;43233;48.608;8.838;2023-04-24T14:42:52;9.80;54.80
32293;DHT22;43233;48.608;8.838;2023-04-24T14:45:18;9.70;53.60
32293;DHT22;43233;48.608;8.838;2023-04-24T14:47:44;9.80;52.80
32293;DHT22;43233;48.608;8.838;2023-04-24T14:50:10;9.70;52.20
32293;DHT22;43233;48.608;8.838;2023-04-24T14:52:38;9.70;53.50
32293;DHT22;43233;48.608;8.838;2023-04-24T14:55:04;9.90;54.10
32293;DHT22;43233;48.608;8.838;2023-04-24T14:57:30;10.00;53.00
32293;DHT22;43233;48.608;8.838;2023-04-24T14:59:56;10.30;52.10
32293;DHT22;43233;48.608;8.838;2023-04-24T15:02:22;10.40;52.30
32293;DHT22;43233;48.608;8.838;2023-04-24T15:04:47;10.50;49.60
32293;DHT22;43233;48.608;8.838;2023-04-24T15:07:13;10.80;50.40
32293;DHT22;43233;48.608;8.838;2023-04-24T15:09:39;10.90;51.90
32293;DHT22;43233;48.608;8.838;2023-04-24T15:12:05;10.90;49.90
32293;DHT22;43233;48.608;8.838;2023-04-24T15:14:31;10.90;51.00
32293;DHT22;43233;48.608;8.838;2023-04-24T15:16:56;10.80;50.00
32293;DHT22;43233;48.608;8.838;2023-04-24T15:19:22;10.80;50.40
32293;DHT22;43233;48.608;8.838;2023-04-24T15:21:48;10.70;49.20
32293;DHT22;43233;48.608;8.838;2023-04-24T15:24:13;10.60;51.70
32293;DHT22;43233;48.608;8.838;2023-04-24T15:29:15;10.70;52.30
32293;DHT22;43233;48.608;8.838;2023-04-24T15:35:03;11.20;49.60
32293;DHT22;43233;48.608;8.838;2023-04-24T15:37:29;11.10;49.50
32293;DHT22;43233;48.608;8.838;2023-04-24T15:39:55;11.00;51.40
32293;DHT22;43233;48.608;8.838;2023-04-24T15:42:21;11.20;49.10
32293;DHT22;43233;48.608;8.838;2023-04-24T15:44:46;11.40;49.60
32293;DHT22;43233;48.608;8.838;2023-04-24T15:47:12;11.50;47.50
32293;DHT22;43233;48.608;8.838;2023-04-24T15:49:39;11.70;47.80
32293;DHT22;43233;48.608;8.838;2023-04-24T15:52:05;11.80;47.60
32293;DHT22;43233;48.608;8.838;2023-04-24T15:54:31;12.00;46.80
32293;DHT22;43233;48.608;8.838;2023-04-24T15:56:57;12.20;46.80